createdAt,value
2018-11-23T00:00:12.176Z,56.23
2018-11-23T00:01:12.164Z,56.02
2018-11-23T00:02:12.155Z,56.02
2018-11-23T00:03:12.151Z,56.02
2018-11-23T00:04:12.232Z,56.43
2018-11-23T00:05:12.121Z,56.43
2018-11-23T00:06:12.112Z,55.63
2018-11-23T00:07:12.099Z,56.43
2018-11-23T00:08:12.095Z,56.13
2018-11-23T00:09:12.082Z,56.52
2018-11-23T00:10:12.239Z,56.33
2018-11-23T00:11:12.058Z,56.23
2018-11-23T00:12:12.046Z,55.82
2018-11-23T00:13:12.034Z,56.45
2018-11-23T00:14:12.024Z,56.23
2018-11-23T00:15:12.013Z,56.83
2018-11-23T00:16:12.359Z,56.35
2018-11-23T00:17:11.998Z,56.45
2018-11-23T00:18:11.982Z,56.26
2018-11-23T00:19:11.968Z,56.45
2018-11-23T00:20:11.960Z,56.58
2018-11-23T00:21:11.991Z,56.58
2018-11-23T00:22:12.034Z,56.58
2018-11-23T00:23:11.938Z,56.88
2018-11-23T00:24:11.914Z,56.88
2018-11-23T00:25:11.922Z,56.98
2018-11-23T00:26:11.892Z,56.78
2018-11-23T00:27:11.881Z,56.78
2018-11-23T00:28:12.189Z,56.78
2018-11-23T00:29:11.860Z,56.88
2018-11-23T00:30:11.848Z,56.88
2018-11-23T00:31:11.842Z,56.78
2018-11-23T00:32:11.827Z,56.98
2018-11-23T00:33:11.817Z,56.78
2018-11-23T00:34:11.910Z,56.88
2018-11-23T00:35:11.794Z,56.88
2018-11-23T00:36:11.800Z,56.68
2018-11-23T00:37:11.771Z,56.68
2018-11-23T00:38:12.757Z,56.88
2018-11-23T00:39:11.750Z,57.18
2018-11-23T00:40:11.847Z,57.08
2018-11-23T00:41:11.728Z,57.01
2018-11-23T00:42:11.716Z,57.11
2018-11-23T00:43:11.706Z,56.98
2018-11-23T00:44:11.696Z,57.08
2018-11-23T00:45:11.683Z,57.11
2018-11-23T00:46:11.768Z,57.21
2018-11-23T00:47:11.661Z,57.21
2018-11-23T00:48:11.654Z,56.61
2018-11-23T00:49:12.311Z,56.61
2018-11-23T00:50:11.655Z,56.78
2018-11-23T00:51:11.616Z,56.78
2018-11-23T00:52:11.737Z,56.88
2018-11-23T00:53:11.602Z,56.88
2018-11-23T00:54:11.601Z,56.78
2018-11-23T00:55:11.592Z,56.48
2018-11-23T00:56:11.612Z,56.78
2018-11-23T00:57:11.583Z,56.78
2018-11-23T00:58:11.773Z,56.48
2018-11-23T00:59:11.543Z,56.58
2018-11-23T01:00:12.322Z,56.78
2018-11-23T01:01:11.524Z,56.58
2018-11-23T01:02:11.560Z,56.58
2018-11-23T01:03:11.506Z,56.78
2018-11-23T01:04:11.624Z,57.08
2018-11-23T01:05:11.482Z,56.88
2018-11-23T01:06:11.488Z,56.78
2018-11-23T01:07:11.455Z,56.88
2018-11-23T01:08:11.441Z,56.88
2018-11-23T01:09:11.438Z,56.78
2018-11-23T01:10:11.524Z,56.88
2018-11-23T01:11:11.404Z,56.88
2018-11-23T01:12:11.392Z,57.08
2018-11-23T01:13:11.382Z,56.88
2018-11-23T01:14:11.369Z,56.78
2018-11-23T01:15:11.369Z,56.88
2018-11-23T01:16:11.609Z,56.98
2018-11-23T01:17:11.338Z,56.88
2018-11-23T01:18:11.331Z,56.88
2018-11-23T01:19:11.316Z,56.78
2018-11-23T01:20:11.317Z,56.88
2018-11-23T01:21:11.294Z,56.88
2018-11-23T01:22:11.408Z,56.58
2018-11-23T01:23:11.277Z,56.56
2018-11-23T01:24:11.265Z,56.88
2018-11-23T01:25:11.300Z,56.56
2018-11-23T01:26:11.253Z,56.56
2018-11-23T01:27:11.230Z,56.45
2018-11-23T01:28:11.323Z,56.76
2018-11-23T01:29:11.206Z,56.48
2018-11-23T01:30:11.194Z,56.45
2018-11-23T01:31:11.184Z,56.88
2018-11-23T01:32:11.186Z,56.58
2018-11-23T01:33:11.161Z,56.76
2018-11-23T01:34:11.484Z,56.98
2018-11-23T01:35:11.143Z,56.56
2018-11-23T01:36:11.133Z,56.58
2018-11-23T01:37:11.120Z,56.56
2018-11-23T01:38:11.107Z,56.58
2018-11-23T01:39:11.102Z,56.56
2018-11-23T01:40:11.258Z,56.85
2018-11-23T01:41:11.076Z,56.78
2018-11-23T01:42:11.062Z,56.78
2018-11-23T01:43:11.056Z,57.18
2018-11-23T01:44:11.044Z,56.78
2018-11-23T01:45:11.032Z,57.21
2018-11-23T01:46:11.118Z,58.31
2018-11-23T01:47:11.013Z,58.14
2018-11-23T01:48:11.000Z,58.24
2018-11-23T01:49:12.002Z,58.97
2018-11-23T01:50:10.989Z,58.77
2018-11-23T01:51:10.963Z,58.57
2018-11-23T01:52:11.126Z,59.10
2018-11-23T01:53:10.947Z,59.41
2018-11-23T01:54:10.933Z,59.13
2018-11-23T01:55:10.928Z,59.20
2018-11-23T01:56:10.918Z,59.03
2018-11-23T01:57:10.900Z,59.23
2018-11-23T01:58:11.018Z,59.13
2018-11-23T01:59:10.878Z,59.53
2018-11-23T02:00:10.865Z,58.93
2018-11-23T02:01:10.859Z,59.13
2018-11-23T02:02:10.845Z,59.26
2018-11-23T02:03:10.835Z,59.43
2018-11-23T02:04:10.931Z,59.26
2018-11-23T02:05:10.854Z,58.86
2018-11-23T02:06:10.801Z,58.86
2018-11-23T02:07:10.792Z,58.62
2018-11-23T02:08:10.774Z,58.55
2018-11-23T02:09:10.765Z,58.86
2018-11-23T02:10:10.970Z,58.65
2018-11-23T02:11:10.745Z,58.75
2018-11-23T02:12:10.736Z,58.83
2018-11-23T02:13:10.723Z,59.13
2018-11-23T02:14:10.716Z,58.22
2018-11-23T02:15:10.720Z,58.35
2018-11-23T02:16:10.800Z,58.42
2018-11-23T02:17:10.678Z,58.35
2018-11-23T02:18:10.667Z,58.22
2018-11-23T02:19:10.660Z,58.93
2018-11-23T02:20:10.642Z,58.15
2018-11-23T02:21:10.632Z,58.22
2018-11-23T02:22:10.724Z,58.12
2018-11-23T02:23:10.610Z,58.22
2018-11-23T02:24:10.599Z,58.22
2018-11-23T02:25:10.593Z,57.82
2018-11-23T02:26:10.577Z,58.12
2018-11-23T02:27:10.571Z,58.02
2018-11-23T02:28:10.733Z,57.82
2018-11-23T02:29:10.544Z,57.82
2018-11-23T02:30:10.538Z,57.92
2018-11-23T02:31:10.527Z,58.33
2018-11-23T02:32:10.515Z,58.22
2018-11-23T02:33:10.504Z,58.02
2018-11-23T02:34:10.797Z,58.12
2018-11-23T02:35:10.480Z,58.22
2018-11-23T02:36:10.472Z,58.02
2018-11-23T02:37:10.460Z,57.92
2018-11-23T02:38:10.448Z,58.09
2018-11-23T02:39:10.441Z,58.00
2018-11-23T02:40:10.540Z,58.42
2018-11-23T02:41:10.426Z,58.40
2018-11-23T02:42:10.410Z,58.80
2018-11-23T02:43:10.397Z,58.02
2018-11-23T02:44:10.383Z,58.40
2018-11-23T02:45:10.378Z,58.00
2018-11-23T02:46:10.843Z,58.70
2018-11-23T02:47:10.350Z,58.70
2018-11-23T02:48:10.340Z,58.60
2018-11-23T02:49:10.327Z,58.09
2018-11-23T02:50:10.320Z,58.83
2018-11-23T02:51:10.305Z,58.62
2018-11-23T02:52:10.402Z,58.70
2018-11-23T02:53:10.283Z,58.70
2018-11-23T02:54:10.277Z,58.83
2018-11-23T02:55:10.261Z,59.10
2018-11-23T02:56:10.252Z,59.13
2018-11-23T02:57:10.241Z,58.62
2018-11-23T02:58:10.373Z,58.73
2018-11-23T02:59:10.216Z,58.62
2018-11-23T03:00:10.210Z,58.83
2018-11-23T03:01:10.194Z,58.62
2018-11-23T03:02:10.194Z,58.73
2018-11-23T03:03:10.177Z,58.62
2018-11-23T03:04:10.461Z,58.62
2018-11-23T03:05:10.152Z,58.62
2018-11-23T03:06:10.141Z,58.80
2018-11-23T03:07:10.135Z,58.53
2018-11-23T03:08:10.122Z,59.30
2018-11-23T03:09:10.110Z,58.93
2018-11-23T03:10:10.213Z,59.10
2018-11-23T03:11:10.087Z,58.93
2018-11-23T03:12:10.076Z,59.23
2018-11-23T03:13:10.067Z,59.10
2018-11-23T03:14:10.061Z,59.13
2018-11-23T03:15:10.068Z,59.03
2018-11-23T03:16:10.153Z,59.13
2018-11-23T03:17:10.024Z,59.10
2018-11-23T03:18:10.011Z,58.90
2018-11-23T03:19:10.000Z,59.03
2018-11-23T03:20:09.989Z,59.13
2018-11-23T03:21:09.978Z,59.50
2018-11-23T03:22:10.175Z,59.41
2018-11-23T03:23:09.956Z,59.03
2018-11-23T03:24:09.946Z,59.23
2018-11-23T03:25:09.931Z,59.23
2018-11-23T03:26:09.924Z,58.90
2018-11-23T03:27:09.912Z,58.90
2018-11-23T03:28:10.073Z,58.90
2018-11-23T03:29:09.892Z,59.30
2018-11-23T03:30:09.874Z,59.30
2018-11-23T03:31:12.510Z,59.74
2018-11-23T03:32:09.854Z,59.60
2018-11-23T03:33:09.843Z,59.60
2018-11-23T03:34:09.953Z,59.41
2018-11-23T03:35:09.823Z,59.10
2018-11-23T03:36:09.819Z,59.41
2018-11-23T03:37:09.802Z,60.00
2018-11-23T03:38:09.799Z,59.53
2018-11-23T03:39:09.780Z,60.11
2018-11-23T03:40:09.946Z,59.74
2018-11-23T03:41:09.757Z,59.70
2018-11-23T03:42:09.747Z,59.74
2018-11-23T03:43:09.740Z,59.63
2018-11-23T03:44:09.728Z,59.74
2018-11-23T03:45:09.718Z,59.80
2018-11-23T03:46:09.879Z,59.60
2018-11-23T03:47:09.692Z,59.70
2018-11-23T03:48:09.678Z,59.70
2018-11-23T03:49:09.676Z,59.60
2018-11-23T03:50:09.661Z,60.21
2018-11-23T03:51:09.650Z,60.53
2018-11-23T03:52:09.732Z,60.24
2018-11-23T03:53:09.630Z,60.74
2018-11-23T03:54:09.623Z,60.33
2018-11-23T03:55:09.606Z,59.94
2018-11-23T03:56:09.595Z,60.13
2018-11-23T03:57:09.586Z,60.24
2018-11-23T03:58:09.796Z,60.33
2018-11-23T03:59:09.562Z,60.53
2018-11-23T04:00:16.877Z,60.44
2018-11-23T04:01:10.537Z,60.13
2018-11-23T04:02:09.530Z,60.53
2018-11-23T04:03:09.517Z,60.44
2018-11-23T04:04:09.824Z,60.33
2018-11-23T04:05:09.498Z,60.13
2018-11-23T04:06:09.483Z,60.33
2018-11-23T04:07:09.477Z,60.21
2018-11-23T04:08:09.462Z,60.41
2018-11-23T04:09:09.453Z,60.53
2018-11-23T04:10:09.572Z,60.51
2018-11-23T04:11:09.433Z,60.31
2018-11-23T04:12:09.421Z,60.31
2018-11-23T04:13:09.408Z,60.84
2018-11-23T04:14:09.397Z,60.51
2018-11-23T04:15:09.387Z,60.21
2018-11-23T04:16:09.547Z,60.71
2018-11-23T04:17:09.363Z,60.84
2018-11-23T04:18:09.355Z,60.91
2018-11-23T04:19:09.341Z,60.61
2018-11-23T04:20:09.330Z,60.44
2018-11-23T04:21:09.321Z,60.44
2018-11-23T04:22:09.410Z,60.81
2018-11-23T04:23:09.296Z,60.94
2018-11-23T04:24:09.290Z,60.84
2018-11-23T04:25:09.275Z,60.94
2018-11-23T04:26:09.264Z,60.64
2018-11-23T04:27:09.257Z,60.94
2018-11-23T04:28:09.459Z,60.94
2018-11-23T04:29:09.235Z,60.94
2018-11-23T04:30:09.221Z,60.84
2018-11-23T04:31:09.208Z,60.74
2018-11-23T04:32:09.198Z,61.14
2018-11-23T04:33:09.187Z,61.04
2018-11-23T04:34:09.297Z,60.84
2018-11-23T04:35:09.170Z,61.14
2018-11-23T04:36:09.155Z,60.94
2018-11-23T04:37:09.145Z,60.94
2018-11-23T04:38:09.132Z,61.04
2018-11-23T04:39:09.121Z,61.41
2018-11-23T04:40:09.210Z,60.74
2018-11-23T04:41:09.102Z,61.04
2018-11-23T04:42:09.091Z,61.04
2018-11-23T04:43:09.075Z,61.04
2018-11-23T04:44:09.065Z,60.94
2018-11-23T04:45:09.053Z,60.94
2018-11-23T04:46:09.323Z,61.04
2018-11-23T04:47:09.029Z,61.04
2018-11-23T04:48:09.018Z,61.04
2018-11-23T04:49:09.008Z,61.14
2018-11-23T04:50:08.999Z,61.14
2018-11-23T04:51:08.994Z,61.24
2018-11-23T04:52:09.246Z,60.94
2018-11-23T04:53:08.963Z,61.44
2018-11-23T04:54:08.962Z,61.04
2018-11-23T04:55:08.942Z,61.44
2018-11-23T04:56:08.930Z,61.04
2018-11-23T04:57:08.921Z,61.24
2018-11-23T04:58:09.004Z,61.34
2018-11-23T04:59:08.897Z,61.34
2018-11-23T05:00:08.886Z,61.14
2018-11-23T05:01:08.875Z,61.24
2018-11-23T05:02:08.864Z,61.04
2018-11-23T05:03:08.856Z,61.44
2018-11-23T05:04:08.976Z,60.94
2018-11-23T05:05:08.831Z,61.14
2018-11-23T05:06:08.821Z,61.14
2018-11-23T05:07:08.810Z,61.04
2018-11-23T05:08:08.798Z,61.11
2018-11-23T05:09:08.792Z,61.34
2018-11-23T05:10:08.959Z,61.04
2018-11-23T05:11:08.774Z,61.24
2018-11-23T05:12:08.757Z,61.44
2018-11-23T05:13:08.746Z,61.14
2018-11-23T05:14:08.781Z,61.34
2018-11-23T05:15:08.723Z,61.14
2018-11-23T05:16:08.925Z,61.14
2018-11-23T05:17:08.703Z,61.24
2018-11-23T05:18:08.689Z,61.14
2018-11-23T05:19:08.679Z,61.65
2018-11-23T05:20:08.669Z,61.24
2018-11-23T05:21:08.658Z,61.24
2018-11-23T05:22:08.769Z,61.14
2018-11-23T05:23:08.635Z,60.91
2018-11-23T05:24:08.622Z,61.04
2018-11-23T05:25:08.615Z,61.44
2018-11-23T05:26:08.602Z,61.44
2018-11-23T05:27:08.590Z,61.44
2018-11-23T05:28:08.702Z,61.24
2018-11-23T05:29:08.568Z,61.14
2018-11-23T05:30:08.557Z,60.91
2018-11-23T05:31:08.547Z,61.34
2018-11-23T05:32:08.537Z,60.91
2018-11-23T05:33:08.528Z,61.04
2018-11-23T05:34:08.738Z,61.41
2018-11-23T05:35:08.505Z,61.01
2018-11-23T05:36:08.493Z,60.81
2018-11-23T05:37:08.481Z,60.91
2018-11-23T05:38:08.470Z,61.01
2018-11-23T05:39:08.459Z,60.71
2018-11-23T05:40:08.545Z,60.91
2018-11-23T05:41:08.442Z,61.11
2018-11-23T05:42:08.426Z,60.78
2018-11-23T05:43:08.424Z,60.38
2018-11-23T05:44:08.404Z,60.78
2018-11-23T05:45:08.392Z,61.01
2018-11-23T05:46:08.782Z,60.88
2018-11-23T05:47:08.373Z,60.38
2018-11-23T05:48:08.360Z,60.51
2018-11-23T05:49:08.352Z,60.71
2018-11-23T05:50:08.339Z,60.88
2018-11-23T05:51:08.329Z,60.78
2018-11-23T05:52:08.428Z,60.88
2018-11-23T05:53:08.305Z,60.58
2018-11-23T05:54:08.295Z,60.78
2018-11-23T05:55:08.283Z,60.18
2018-11-23T05:56:08.272Z,60.58
2018-11-23T05:57:08.741Z,60.78
2018-11-23T05:58:08.383Z,60.78
2018-11-23T05:59:08.239Z,60.48
2018-11-23T06:00:08.228Z,60.78
2018-11-23T06:01:08.251Z,60.88
2018-11-23T06:02:08.206Z,60.58
2018-11-23T06:03:08.193Z,61.08
2018-11-23T06:04:08.360Z,60.98
2018-11-23T06:05:08.172Z,60.68
2018-11-23T06:06:08.165Z,60.71
2018-11-23T06:07:08.150Z,60.88
2018-11-23T06:08:08.140Z,60.48
2018-11-23T06:09:08.132Z,60.48
2018-11-23T06:10:08.262Z,60.78
2018-11-23T06:11:08.107Z,60.78
2018-11-23T06:12:08.096Z,60.38
2018-11-23T06:13:08.090Z,60.78
2018-11-23T06:14:08.074Z,60.78
2018-11-23T06:15:08.063Z,61.08
2018-11-23T06:16:08.199Z,61.08
2018-11-23T06:17:08.045Z,60.88
2018-11-23T06:18:08.035Z,61.31
2018-11-23T06:19:08.018Z,61.11
2018-11-23T06:20:08.007Z,61.31
2018-11-23T06:21:08.003Z,61.41
2018-11-23T06:22:08.162Z,61.61
2018-11-23T06:23:07.986Z,61.65
2018-11-23T06:24:07.963Z,61.51
2018-11-23T06:25:07.959Z,61.74
2018-11-23T06:26:07.942Z,61.71
2018-11-23T06:27:07.939Z,61.94
2018-11-23T06:28:08.263Z,62.05
2018-11-23T06:29:07.912Z,62.15
2018-11-23T06:30:07.898Z,62.18
2018-11-23T06:31:07.891Z,62.18
2018-11-23T06:32:07.878Z,62.38
2018-11-23T06:33:07.863Z,62.58
2018-11-23T06:34:07.960Z,62.68
2018-11-23T06:35:07.852Z,62.38
2018-11-23T06:36:07.937Z,62.58
2018-11-23T06:37:07.825Z,62.58
2018-11-23T06:38:07.819Z,62.68
2018-11-23T06:39:07.799Z,62.48
2018-11-23T06:40:07.888Z,62.38
2018-11-23T06:41:10.511Z,62.71
2018-11-23T06:42:07.766Z,63.11
2018-11-23T06:43:07.754Z,62.81
2018-11-23T06:44:07.746Z,63.01
2018-11-23T06:45:07.734Z,62.91
2018-11-23T06:46:08.055Z,62.91
2018-11-23T06:47:07.716Z,62.81
2018-11-23T06:48:07.701Z,63.01
2018-11-23T06:49:07.718Z,63.01
2018-11-23T06:50:07.699Z,63.04
2018-11-23T06:51:07.665Z,63.14
2018-11-23T06:52:08.112Z,63.01
2018-11-23T06:53:07.648Z,63.24
2018-11-23T06:54:08.556Z,63.45
2018-11-23T06:55:07.624Z,63.45
2018-11-23T06:56:07.611Z,63.65
2018-11-23T06:57:07.602Z,63.85
2018-11-23T06:58:07.688Z,63.67
2018-11-23T06:59:07.578Z,63.65
2018-11-23T07:00:07.568Z,63.47
2018-11-23T07:01:07.560Z,63.47
2018-11-23T07:02:07.547Z,63.45
2018-11-23T07:03:07.544Z,63.67
2018-11-23T07:04:07.737Z,64.07
2018-11-23T07:05:07.516Z,63.87
2018-11-23T07:06:07.502Z,64.18
2018-11-23T07:07:07.493Z,64.48
2018-11-23T07:08:07.483Z,64.28
2018-11-23T07:09:07.474Z,64.69
2018-11-23T07:10:07.637Z,64.51
2018-11-23T07:11:07.448Z,64.78
2018-11-23T07:12:07.437Z,64.72
2018-11-23T07:13:07.426Z,64.92
2018-11-23T07:14:07.416Z,65.32
2018-11-23T07:15:07.407Z,65.32
2018-11-23T07:16:07.503Z,65.42
2018-11-23T07:17:07.385Z,65.01
2018-11-23T07:18:07.375Z,65.82
2018-11-23T07:19:07.360Z,65.55
2018-11-23T07:20:07.357Z,65.82
2018-11-23T07:21:07.340Z,65.35
2018-11-23T07:22:07.429Z,64.95
2018-11-23T07:23:07.316Z,65.55
2018-11-23T07:24:07.305Z,65.32
2018-11-23T07:25:07.295Z,65.12
2018-11-23T07:26:07.285Z,65.15
2018-11-23T07:27:07.276Z,65.25
2018-11-23T07:28:07.603Z,65.62
2018-11-23T07:29:07.250Z,65.22
2018-11-23T07:30:07.239Z,65.32
2018-11-23T07:31:07.233Z,65.22
2018-11-23T07:32:07.220Z,65.35
2018-11-23T07:33:07.207Z,65.42
2018-11-23T07:34:07.334Z,64.61
2018-11-23T07:35:07.190Z,66.05
2018-11-23T07:36:07.173Z,65.65
2018-11-23T07:37:07.162Z,65.85
2018-11-23T07:38:07.150Z,65.65
2018-11-23T07:39:07.141Z,65.85
2018-11-23T07:40:07.228Z,65.85
2018-11-23T07:41:07.118Z,65.65
2018-11-23T07:42:07.107Z,65.65
2018-11-23T07:43:07.105Z,64.81
2018-11-23T07:44:07.094Z,64.72
2018-11-23T07:45:07.073Z,64.61
2018-11-23T07:46:07.248Z,65.72
2018-11-23T07:47:07.053Z,65.42
2018-11-23T07:48:07.041Z,65.01
2018-11-23T07:49:07.033Z,65.62
2018-11-23T07:50:07.060Z,64.61
2018-11-23T07:51:07.008Z,65.82
2018-11-23T07:52:07.104Z,64.69
2018-11-23T07:53:06.989Z,65.09
2018-11-23T07:54:06.978Z,65.09
2018-11-23T07:55:06.976Z,64.69
2018-11-23T07:56:06.972Z,64.98
2018-11-23T07:57:06.944Z,65.46
2018-11-23T07:58:07.252Z,64.65
2018-11-23T07:59:06.920Z,64.65
2018-11-23T08:00:06.909Z,64.15
2018-11-23T08:01:06.907Z,64.35
2018-11-23T08:02:06.888Z,64.62
2018-11-23T08:03:06.879Z,64.25
2018-11-23T08:04:07.177Z,64.02
2018-11-23T08:05:06.854Z,64.12
2018-11-23T08:06:06.845Z,64.32
2018-11-23T08:07:06.838Z,64.52
2018-11-23T08:08:06.826Z,64.32
2018-11-23T08:09:06.812Z,64.52
2018-11-23T08:10:06.914Z,64.32
2018-11-23T08:11:06.805Z,64.09
2018-11-23T08:12:06.778Z,64.19
2018-11-23T08:13:06.765Z,64.49
2018-11-23T08:14:06.759Z,64.29
2018-11-23T08:15:06.745Z,64.19
2018-11-23T08:16:07.173Z,64.82
2018-11-23T08:17:06.723Z,64.79
2018-11-23T08:18:06.713Z,64.29
2018-11-23T08:19:06.718Z,64.59
2018-11-23T08:20:06.691Z,65.19
2018-11-23T08:21:06.682Z,65.19
2018-11-23T08:22:06.881Z,64.89
2018-11-23T08:23:06.658Z,64.99
2018-11-23T08:24:06.645Z,64.89
2018-11-23T08:25:06.635Z,64.89
2018-11-23T08:26:06.627Z,64.89
2018-11-23T08:27:06.616Z,64.99
2018-11-23T08:28:06.922Z,64.79
2018-11-23T08:29:06.593Z,64.59
2018-11-23T08:30:06.580Z,64.26
2018-11-23T08:31:06.569Z,64.29
2018-11-23T08:32:06.561Z,64.36
2018-11-23T08:33:06.549Z,64.16
2018-11-23T08:34:06.657Z,63.85
2018-11-23T08:35:06.525Z,63.85
2018-11-23T08:36:06.522Z,63.85
2018-11-23T08:37:06.504Z,63.85
2018-11-23T08:38:06.495Z,63.76
2018-11-23T08:39:06.480Z,63.93
2018-11-23T08:40:06.740Z,64.06
2018-11-23T08:41:06.460Z,64.06
2018-11-23T08:42:06.448Z,64.03
2018-11-23T08:43:06.437Z,63.82
2018-11-23T08:44:06.426Z,64.03
2018-11-23T08:45:06.414Z,63.76
2018-11-23T08:46:07.065Z,63.73
2018-11-23T08:47:06.392Z,63.76
2018-11-23T08:48:06.382Z,63.73
2018-11-23T08:49:06.373Z,63.93
2018-11-23T08:50:06.360Z,64.03
2018-11-23T08:51:06.349Z,64.03
2018-11-23T08:52:06.447Z,63.73
2018-11-23T08:53:06.329Z,63.73
2018-11-23T08:54:06.364Z,63.82
2018-11-23T08:55:06.306Z,63.73
2018-11-23T08:56:06.295Z,63.82
2018-11-23T08:57:06.284Z,63.82
2018-11-23T08:58:06.416Z,63.62
2018-11-23T08:59:06.267Z,63.59
2018-11-23T09:00:06.251Z,63.90
2018-11-23T09:01:06.238Z,63.79
2018-11-23T09:02:06.228Z,63.59
2018-11-23T09:03:06.217Z,63.39
2018-11-23T09:04:06.420Z,63.70
2018-11-23T09:05:06.198Z,63.59
2018-11-23T09:06:06.184Z,63.49
2018-11-23T09:07:06.174Z,63.26
2018-11-23T09:08:06.168Z,63.59
2018-11-23T09:09:06.151Z,63.26
2018-11-23T09:10:06.240Z,62.96
2018-11-23T09:11:06.129Z,63.06
2018-11-23T09:12:06.118Z,62.93
2018-11-23T09:13:06.109Z,62.63
2018-11-23T09:14:06.097Z,62.83
2018-11-23T09:15:06.115Z,62.93
2018-11-23T09:16:06.175Z,62.53
2018-11-23T09:17:06.071Z,62.20
2018-11-23T09:18:06.052Z,62.10
2018-11-23T09:19:06.042Z,62.40
2018-11-23T09:20:06.035Z,62.20
2018-11-23T09:21:06.022Z,62.00
2018-11-23T09:22:06.272Z,62.07
2018-11-23T09:23:05.997Z,62.27
2018-11-23T09:24:05.986Z,61.87
2018-11-23T09:25:05.976Z,61.94
2018-11-23T09:26:05.966Z,61.87
2018-11-23T09:27:05.954Z,61.74
2018-11-23T09:28:06.040Z,61.84
2018-11-23T09:29:05.946Z,62.14
2018-11-23T09:30:05.924Z,61.74
2018-11-23T09:31:05.922Z,61.71
2018-11-23T09:32:05.899Z,61.41
2018-11-23T09:33:05.892Z,61.61
2018-11-23T09:34:06.153Z,61.11
2018-11-23T09:35:05.869Z,61.18
2018-11-23T09:36:05.856Z,61.18
2018-11-23T09:37:05.845Z,61.18
2018-11-23T09:38:05.834Z,61.45
2018-11-23T09:39:05.825Z,60.95
2018-11-23T09:40:05.984Z,60.85
2018-11-23T09:41:05.802Z,61.05
2018-11-23T09:42:05.790Z,61.15
2018-11-23T09:43:05.780Z,60.72
2018-11-23T09:44:05.777Z,60.52
2018-11-23T09:45:05.806Z,60.72
2018-11-23T09:46:05.854Z,61.02
2018-11-23T09:47:10.019Z,60.72
2018-11-23T09:48:05.723Z,60.62
2018-11-23T09:49:05.714Z,60.59
2018-11-23T09:50:05.704Z,60.69
2018-11-23T09:51:05.691Z,60.69
2018-11-23T09:52:05.802Z,60.39
2018-11-23T09:53:05.669Z,60.49
2018-11-23T09:54:05.658Z,60.46
2018-11-23T09:55:05.647Z,59.86
2018-11-23T09:56:05.635Z,60.36
2018-11-23T09:57:05.627Z,59.74
2018-11-23T09:58:05.895Z,60.14
2018-11-23T09:59:05.605Z,60.14
2018-11-23T10:00:05.594Z,60.11
2018-11-23T10:02:05.573Z,60.00
2018-11-23T10:03:05.567Z,60.11
2018-11-23T10:04:05.736Z,60.03
2018-11-23T10:05:05.606Z,60.50
2018-11-23T10:06:05.535Z,60.11
2018-11-23T10:07:05.519Z,60.63
2018-11-23T10:08:05.510Z,60.50
2018-11-23T10:09:05.495Z,60.80
2018-11-23T10:10:05.589Z,60.33
2018-11-23T10:11:05.476Z,60.80
2018-11-23T10:12:05.472Z,60.83
2018-11-23T10:13:05.454Z,60.71
2018-11-23T10:14:05.444Z,60.74
2018-11-23T10:15:05.434Z,60.63
2018-11-23T10:16:06.211Z,60.74
2018-11-23T10:17:05.412Z,60.71
2018-11-23T10:18:05.399Z,60.63
2018-11-23T10:19:05.398Z,60.63
2018-11-23T10:20:05.411Z,60.83
2018-11-23T10:21:05.366Z,60.83
2018-11-23T10:22:05.620Z,60.91
2018-11-23T10:23:05.344Z,60.74
2018-11-23T10:24:05.333Z,60.83
2018-11-23T10:25:05.323Z,61.04
2018-11-23T10:26:06.213Z,60.83
2018-11-23T10:27:05.301Z,60.74
2018-11-23T10:28:05.400Z,60.83
2018-11-23T10:29:05.282Z,60.93
2018-11-23T10:30:05.274Z,60.83
2018-11-23T10:31:05.278Z,60.74
2018-11-23T10:32:05.256Z,60.74
2018-11-23T10:33:05.237Z,60.63
2018-11-23T10:34:05.333Z,60.63
2018-11-23T10:35:05.216Z,60.63
2018-11-23T10:36:05.207Z,60.53
2018-11-23T10:37:05.200Z,60.53
2018-11-23T10:38:05.182Z,60.53
2018-11-23T10:39:05.172Z,60.50
2018-11-23T10:40:05.484Z,60.41
2018-11-23T10:41:05.149Z,60.33
2018-11-23T10:42:05.177Z,60.31
2018-11-23T10:43:05.128Z,60.41
2018-11-23T10:44:05.118Z,60.31
2018-11-23T10:45:05.105Z,60.11
2018-11-23T10:46:05.202Z,60.41
2018-11-23T10:47:05.085Z,59.81
2018-11-23T10:48:05.076Z,60.31
2018-11-23T10:49:05.091Z,59.98
2018-11-23T10:50:05.052Z,59.91
2018-11-23T10:51:05.041Z,59.78
2018-11-23T10:52:05.154Z,59.68
2018-11-23T10:53:05.021Z,59.58
2018-11-23T10:54:05.008Z,60.08
2018-11-23T10:55:04.996Z,60.17
2018-11-23T10:56:04.986Z,59.68
2018-11-23T10:57:05.003Z,59.48
2018-11-23T10:58:05.252Z,59.28
2018-11-23T10:59:04.954Z,59.48
2018-11-23T11:00:04.943Z,59.38
2018-11-23T11:01:04.956Z,59.28
2018-11-23T11:02:04.920Z,59.28
2018-11-23T11:03:04.910Z,59.48
2018-11-23T11:04:05.089Z,59.38
2018-11-23T11:05:04.889Z,59.91
2018-11-23T11:06:04.879Z,58.88
2018-11-23T11:07:04.870Z,60.31
2018-11-23T11:08:04.882Z,60.03
2018-11-23T11:09:04.844Z,60.14
2018-11-23T11:10:04.980Z,60.14
2018-11-23T11:11:04.837Z,59.86
2018-11-23T11:12:04.813Z,60.57
2018-11-23T11:13:04.804Z,60.66
2018-11-23T11:14:04.794Z,60.66
2018-11-23T11:15:04.781Z,60.46
2018-11-23T11:16:04.974Z,60.69
2018-11-23T11:17:04.757Z,60.79
2018-11-23T11:18:04.745Z,60.69
2018-11-23T11:19:04.735Z,60.69
2018-11-23T11:20:04.725Z,60.79
2018-11-23T11:21:04.716Z,60.69
2018-11-23T11:22:04.884Z,60.79
2018-11-23T11:23:04.697Z,60.59
2018-11-23T11:24:04.680Z,60.59
2018-11-23T11:25:04.693Z,60.59
2018-11-23T11:26:04.659Z,60.42
2018-11-23T11:27:04.649Z,60.82
2018-11-23T11:28:04.740Z,60.72
2018-11-23T11:29:04.629Z,60.59
2018-11-23T11:30:04.620Z,60.59
2018-11-23T11:31:04.604Z,60.49
2018-11-23T11:32:04.593Z,60.69
2018-11-23T11:33:04.584Z,60.10
2018-11-23T11:34:04.673Z,60.19
2018-11-23T11:35:04.562Z,59.89
2018-11-23T11:36:04.551Z,60.29
2018-11-23T11:37:04.539Z,60.29
2018-11-23T11:38:04.530Z,59.69
2018-11-23T11:39:04.530Z,60.29
2018-11-23T11:40:04.701Z,60.19
2018-11-23T11:41:04.495Z,60.69
2018-11-23T11:42:04.485Z,60.39
2018-11-23T11:43:04.475Z,60.10
2018-11-23T11:44:04.469Z,60.62
2018-11-23T11:45:04.459Z,60.49
2018-11-23T11:46:04.661Z,60.62
2018-11-23T11:47:04.436Z,60.52
2018-11-23T11:48:04.418Z,60.82
2018-11-23T11:49:04.408Z,60.49
2018-11-23T11:50:04.397Z,60.72
2018-11-23T11:51:04.408Z,60.62
2018-11-23T11:52:04.473Z,60.62
2018-11-23T11:53:04.366Z,60.92
2018-11-23T11:54:04.354Z,60.82
2018-11-23T11:55:04.344Z,60.82
2018-11-23T11:56:04.341Z,60.62
2018-11-23T11:57:04.330Z,60.82
2018-11-23T11:58:04.436Z,60.62
2018-11-23T11:59:04.301Z,60.62
2018-11-23T12:00:04.289Z,60.92
2018-11-23T12:01:04.281Z,60.72
2018-11-23T12:02:10.037Z,60.72
2018-11-23T12:03:07.221Z,60.42
2018-11-23T12:04:04.246Z,60.42
2018-11-23T12:05:04.234Z,60.82
2018-11-23T12:06:04.225Z,60.82
2018-11-23T12:07:04.211Z,60.82
2018-11-23T12:08:04.202Z,61.02
2018-11-23T12:09:04.291Z,61.02
2018-11-23T12:10:04.195Z,60.72
2018-11-23T12:11:04.176Z,60.92
2018-11-23T12:12:04.164Z,60.82
2018-11-23T12:13:04.148Z,60.92
2018-11-23T12:14:04.138Z,61.15
2018-11-23T12:15:04.226Z,61.22
2018-11-23T12:16:04.113Z,61.02
2018-11-23T12:17:04.104Z,60.85
2018-11-23T12:18:04.092Z,61.25
2018-11-23T12:19:04.084Z,60.72
2018-11-23T12:20:04.071Z,60.82
2018-11-23T12:21:05.307Z,61.12
2018-11-23T12:22:04.706Z,61.02
2018-11-23T12:23:04.037Z,61.15
2018-11-23T12:24:04.027Z,60.85
2018-11-23T12:25:04.714Z,61.02
2018-11-23T12:26:04.022Z,60.72
2018-11-23T12:27:04.140Z,61.12
2018-11-23T12:28:03.992Z,60.62
2018-11-23T12:29:03.979Z,60.82
2018-11-23T12:30:03.968Z,60.42
2018-11-23T12:31:03.950Z,60.59
2018-11-23T12:32:03.942Z,60.69
2018-11-23T12:33:04.031Z,60.29
2018-11-23T12:34:03.920Z,60.19
2018-11-23T12:35:03.912Z,60.19
2018-11-23T12:36:03.896Z,60.19
2018-11-23T12:37:03.886Z,60.19
2018-11-23T12:38:03.874Z,59.99
2018-11-23T12:39:06.805Z,59.89
2018-11-23T12:40:03.853Z,60.19
2018-11-23T12:41:03.842Z,60.10
2018-11-23T12:42:03.831Z,60.62
2018-11-23T12:43:03.822Z,60.69
2018-11-23T12:44:03.811Z,60.42
2018-11-23T12:45:03.921Z,60.89
2018-11-23T12:46:03.803Z,61.02
2018-11-23T12:47:03.777Z,61.12
2018-11-23T12:48:03.769Z,61.42
2018-11-23T12:49:03.754Z,61.12
2018-11-23T12:50:03.748Z,61.15
2018-11-23T12:51:03.873Z,61.55
2018-11-23T12:52:03.721Z,61.65
2018-11-23T12:53:06.424Z,61.45